sensor_id;sensor_type;location;lat;lon;timestamp;P1;durP1;ratioP1;P2;durP2;ratioP2
26654;SDS011;14278;50.784;4.630;2024-02-28T00:32:05;27.80;;;12.23;;
26654;SDS011;14278;50.784;4.630;2024-02-28T00:34:55;19.97;;;9.77;;
26654;SDS011;14278;50.784;4.630;2024-02-28T00:37:24;26.37;;;10.97;;
26654;SDS011;14278;50.784;4.630;2024-02-28T00:40:04;19.43;;;10.07;;
26654;SDS011;14278;50.784;4.630;2024-02-28T00:42:35;21.20;;;10.97;;
26654;SDS011;14278;50.784;4.630;2024-02-28T00:45:14;22.87;;;10.50;;
26654;SDS011;14278;50.784;4.630;2024-02-28T00:47:42;25.93;;;11.40;;
26654;SDS011;14278;50.784;4.630;2024-02-28T00:50:08;22.83;;;11.80;;
26654;SDS011;14278;50.784;4.630;2024-02-28T00:52:41;20.73;;;10.30;;
26654;SDS011;14278;50.784;4.630;2024-02-28T00:55:06;15.23;;;8.57;;
26654;SDS011;14278;50.784;4.630;2024-02-28T01:00:26;18.97;;;10.07;;
26654;SDS011;14278;50.784;4.630;2024-02-28T01:03:04;20.90;;;10.33;;
26654;SDS011;14278;50.784;4.630;2024-02-28T01:05:35;24.27;;;10.73;;
26654;SDS011;14278;50.784;4.630;2024-02-28T01:08:07;19.70;;;9.67;;
26654;SDS011;14278;50.784;4.630;2024-02-28T01:10:34;19.90;;;9.37;;
26654;SDS011;14278;50.784;4.630;2024-02-28T01:13:01;16.97;;;9.33;;
26654;SDS011;14278;50.784;4.630;2024-02-28T01:15:27;19.90;;;9.90;;
26654;SDS011;14278;50.784;4.630;2024-02-28T01:18:16;20.00;;;8.93;;
26654;SDS011;14278;50.784;4.630;2024-02-28T01:20:45;15.70;;;10.30;;
26654;SDS011;14278;50.784;4.630;2024-02-28T01:23:18;17.30;;;9.17;;
26654;SDS011;14278;50.784;4.630;2024-02-28T01:25:44;21.70;;;9.80;;
26654;SDS011;14278;50.784;4.630;2024-02-28T01:28:13;17.57;;;10.00;;
26654;SDS011;14278;50.784;4.630;2024-02-28T01:30:42;17.53;;;10.50;;
26654;SDS011;14278;50.784;4.630;2024-02-28T01:33:11;17.27;;;10.20;;
26654;SDS011;14278;50.784;4.630;2024-02-28T01:35:38;17.03;;;8.20;;
26654;SDS011;14278;50.784;4.630;2024-02-28T01:38:17;17.13;;;9.80;;
26654;SDS011;14278;50.784;4.630;2024-02-28T01:41:01;25.17;;;10.73;;
26654;SDS011;14278;50.784;4.630;2024-02-28T01:43:27;17.57;;;10.93;;
26654;SDS011;14278;50.784;4.630;2024-02-28T01:48:23;19.13;;;9.97;;
26654;SDS011;14278;50.784;4.630;2024-02-28T01:50:58;17.37;;;8.93;;
26654;SDS011;14278;50.784;4.630;2024-02-28T01:53:50;19.30;;;11.27;;
26654;SDS011;14278;50.784;4.630;2024-02-28T01:56:38;18.73;;;8.47;;
26654;SDS011;14278;50.784;4.630;2024-02-28T01:59:09;22.23;;;10.53;;
26654;SDS011;14278;50.784;4.630;2024-02-28T02:01:36;19.63;;;9.43;;
26654;SDS011;14278;50.784;4.630;2024-02-28T02:04:03;18.97;;;8.23;;
26654;SDS011;14278;50.784;4.630;2024-02-28T02:06:34;13.20;;;8.20;;
26654;SDS011;14278;50.784;4.630;2024-02-28T02:09:35;13.63;;;7.70;;
26654;SDS011;14278;50.784;4.630;2024-02-28T02:12:01;16.50;;;7.87;;
26654;SDS011;14278;50.784;4.630;2024-02-28T02:14:28;17.07;;;9.13;;
26654;SDS011;14278;50.784;4.630;2024-02-28T02:16:55;16.03;;;8.07;;
26654;SDS011;14278;50.784;4.630;2024-02-28T02:19:22;15.90;;;8.37;;
26654;SDS011;14278;50.784;4.630;2024-02-28T02:21:52;19.30;;;9.73;;
26654;SDS011;14278;50.784;4.630;2024-02-28T02:24:25;15.77;;;7.90;;
26654;SDS011;14278;50.784;4.630;2024-02-28T02:26:58;15.03;;;7.03;;
26654;SDS011;14278;50.784;4.630;2024-02-28T02:29:32;21.37;;;8.57;;
26654;SDS011;14278;50.784;4.630;2024-02-28T02:32:27;13.07;;;7.23;;
26654;SDS011;14278;50.784;4.630;2024-02-28T02:34:53;17.50;;;7.77;;
26654;SDS011;14278;50.784;4.630;2024-02-28T02:37:19;14.33;;;7.13;;
26654;SDS011;14278;50.784;4.630;2024-02-28T02:39:46;13.17;;;7.90;;
26654;SDS011;14278;50.784;4.630;2024-02-28T02:42:11;12.90;;;7.87;;
26654;SDS011;14278;50.784;4.630;2024-02-28T02:44:40;17.87;;;8.73;;
26654;SDS011;14278;50.784;4.630;2024-02-28T02:47:05;13.60;;;8.97;;
26654;SDS011;14278;50.784;4.630;2024-02-28T02:49:31;16.20;;;8.47;;
26654;SDS011;14278;50.784;4.630;2024-02-28T02:51:57;14.40;;;7.40;;
26654;SDS011;14278;50.784;4.630;2024-02-28T02:54:23;17.57;;;8.83;;
26654;SDS011;14278;50.784;4.630;2024-02-28T02:56:49;17.63;;;8.90;;
26654;SDS011;14278;50.784;4.630;2024-02-28T02:59:14;12.10;;;8.10;;
26654;SDS011;14278;50.784;4.630;2024-02-28T03:01:46;16.10;;;7.77;;
26654;SDS011;14278;50.784;4.630;2024-02-28T03:04:14;16.67;;;9.03;;
26654;SDS011;14278;50.784;4.630;2024-02-28T03:06:44;14.27;;;7.43;;
26654;SDS011;14278;50.784;4.630;2024-02-28T03:09:09;18.20;;;9.07;;
26654;SDS011;14278;50.784;4.630;2024-02-28T03:11:36;21.23;;;9.20;;
26654;SDS011;14278;50.784;4.630;2024-02-28T03:14:16;18.73;;;9.70;;
26654;SDS011;14278;50.784;4.630;2024-02-28T03:17:02;15.87;;;8.47;;
26654;SDS011;14278;50.784;4.630;2024-02-28T03:19:28;19.40;;;10.40;;
26654;SDS011;14278;50.784;4.630;2024-02-28T03:21:54;13.83;;;8.90;;
26654;SDS011;14278;50.784;4.630;2024-02-28T03:24:20;21.30;;;10.47;;
26654;SDS011;14278;50.784;4.630;2024-02-28T03:26:45;14.20;;;8.07;;
26654;SDS011;14278;50.784;4.630;2024-02-28T03:29:11;18.93;;;7.50;;
26654;SDS011;14278;50.784;4.630;2024-02-28T03:31:37;17.87;;;8.27;;
26654;SDS011;14278;50.784;4.630;2024-02-28T03:34:03;18.17;;;9.73;;
26654;SDS011;14278;50.784;4.630;2024-02-28T03:36:29;11.27;;;7.07;;
26654;SDS011;14278;50.784;4.630;2024-02-28T03:38:54;14.50;;;8.33;;
26654;SDS011;14278;50.784;4.630;2024-02-28T03:41:20;14.17;;;7.10;;
26654;SDS011;14278;50.784;4.630;2024-02-28T03:43:47;15.10;;;8.30;;
26654;SDS011;14278;50.784;4.630;2024-02-28T03:46:12;9.50;;;5.73;;
26654;SDS011;14278;50.784;4.630;2024-02-28T03:48:38;16.07;;;7.77;;
26654;SDS011;14278;50.784;4.630;2024-02-28T03:51:04;15.23;;;8.60;;
26654;SDS011;14278;50.784;4.630;2024-02-28T03:53:30;17.27;;;9.17;;
26654;SDS011;14278;50.784;4.630;2024-02-28T03:55:55;14.33;;;7.37;;
26654;SDS011;14278;50.784;4.630;2024-02-28T03:58:21;18.60;;;7.73;;
26654;SDS011;14278;50.784;4.630;2024-02-28T04:00:47;13.60;;;6.90;;
26654;SDS011;14278;50.784;4.630;2024-02-28T04:03:12;13.13;;;6.97;;
26654;SDS011;14278;50.784;4.630;2024-02-28T04:05:39;15.33;;;8.00;;
26654;SDS011;14278;50.784;4.630;2024-02-28T04:08:05;13.60;;;7.27;;
26654;SDS011;14278;50.784;4.630;2024-02-28T04:10:31;15.13;;;7.20;;
26654;SDS011;14278;50.784;4.630;2024-02-28T04:12:57;16.37;;;7.47;;
26654;SDS011;14278;50.784;4.630;2024-02-28T04:15:22;18.57;;;9.37;;
26654;SDS011;14278;50.784;4.630;2024-02-28T04:17:50;15.57;;;8.67;;
26654;SDS011;14278;50.784;4.630;2024-02-28T04:20:16;13.57;;;7.97;;
26654;SDS011;14278;50.784;4.630;2024-02-28T04:22:42;12.23;;;7.63;;
26654;SDS011;14278;50.784;4.630;2024-02-28T04:25:08;12.33;;;7.70;;
26654;SDS011;14278;50.784;4.630;2024-02-28T04:27:35;13.53;;;8.03;;
26654;SDS011;14278;50.784;4.630;2024-02-28T04:30:01;15.90;;;7.67;;
26654;SDS011;14278;50.784;4.630;2024-02-28T04:32:28;12.10;;;6.93;;
26654;SDS011;14278;50.784;4.630;2024-02-28T04:34:53;14.47;;;6.83;;
26654;SDS011;14278;50.784;4.630;2024-02-28T04:37:19;11.83;;;7.37;;
26654;SDS011;14278;50.784;4.630;2024-02-28T04:39:46;15.20;;;6.93;;
26654;SDS011;14278;50.784;4.630;2024-02-28T04:42:12;17.50;;;8.33;;
26654;SDS011;14278;50.784;4.630;2024-02-28T04:44:38;12.50;;;7.10;;
26654;SDS011;14278;50.784;4.630;2024-02-28T04:47:04;15.07;;;6.67;;
26654;SDS011;14278;50.784;4.630;2024-02-28T04:49:30;13.73;;;6.40;;
26654;SDS011;14278;50.784;4.630;2024-02-28T04:51:55;10.27;;;5.87;;
26654;SDS011;14278;50.784;4.630;2024-02-28T04:54:21;12.43;;;7.60;;
26654;SDS011;14278;50.784;4.630;2024-02-28T04:56:48;16.80;;;7.13;;
26654;SDS011;14278;50.784;4.630;2024-02-28T04:59:16;7.67;;;6.10;;
26654;SDS011;14278;50.784;4.630;2024-02-28T05:01:42;9.83;;;6.37;;
26654;SDS011;14278;50.784;4.630;2024-02-28T05:04:08;9.97;;;5.87;;
26654;SDS011;14278;50.784;4.630;2024-02-28T05:06:34;9.57;;;6.27;;
26654;SDS011;14278;50.784;4.630;2024-02-28T05:09:00;10.43;;;6.53;;
26654;SDS011;14278;50.784;4.630;2024-02-28T05:11:26;14.43;;;7.43;;
26654;SDS011;14278;50.784;4.630;2024-02-28T05:13:52;12.37;;;6.83;;
26654;SDS011;14278;50.784;4.630;2024-02-28T05:16:18;16.50;;;7.40;;
26654;SDS011;14278;50.784;4.630;2024-02-28T05:18:47;14.87;;;6.37;;
26654;SDS011;14278;50.784;4.630;2024-02-28T05:21:13;9.60;;;6.73;;
26654;SDS011;14278;50.784;4.630;2024-02-28T05:23:42;12.03;;;6.77;;
26654;SDS011;14278;50.784;4.630;2024-02-28T05:26:07;14.13;;;6.73;;
26654;SDS011;14278;50.784;4.630;2024-02-28T05:28:33;8.13;;;6.40;;
26654;SDS011;14278;50.784;4.630;2024-02-28T05:31:25;9.73;;;5.83;;
26654;SDS011;14278;50.784;4.630;2024-02-28T05:33:55;10.77;;;5.87;;
26654;SDS011;14278;50.784;4.630;2024-02-28T05:36:22;13.57;;;7.30;;
26654;SDS011;14278;50.784;4.630;2024-02-28T05:38:48;10.73;;;6.30;;
26654;SDS011;14278;50.784;4.630;2024-02-28T05:41:18;13.97;;;7.00;;
26654;SDS011;14278;50.784;4.630;2024-02-28T05:43:45;14.37;;;6.57;;
26654;SDS011;14278;50.784;4.630;2024-02-28T05:46:11;12.83;;;6.20;;
26654;SDS011;14278;50.784;4.630;2024-02-28T05:48:37;10.07;;;5.83;;
26654;SDS011;14278;50.784;4.630;2024-02-28T05:51:03;13.57;;;6.57;;
26654;SDS011;14278;50.784;4.630;2024-02-28T05:53:30;10.30;;;6.57;;
26654;SDS011;14278;50.784;4.630;2024-02-28T05:56:04;12.97;;;6.67;;
26654;SDS011;14278;50.784;4.630;2024-02-28T05:58:37;12.40;;;6.60;;
26654;SDS011;14278;50.784;4.630;2024-02-28T06:01:03;13.77;;;7.47;;
26654;SDS011;14278;50.784;4.630;2024-02-28T06:03:29;10.20;;;6.47;;
26654;SDS011;14278;50.784;4.630;2024-02-28T06:05:54;12.93;;;6.93;;
26654;SDS011;14278;50.784;4.630;2024-02-28T06:08:22;55.83;;;26.27;;
26654;SDS011;14278;50.784;4.630;2024-02-28T06:10:48;91.90;;;41.60;;
26654;SDS011;14278;50.784;4.630;2024-02-28T06:13:14;16.87;;;8.87;;
26654;SDS011;14278;50.784;4.630;2024-02-28T06:15:39;13.43;;;7.60;;
26654;SDS011;14278;50.784;4.630;2024-02-28T06:18:05;13.10;;;7.70;;
26654;SDS011;14278;50.784;4.630;2024-02-28T06:20:31;25.50;;;7.93;;
26654;SDS011;14278;50.784;4.630;2024-02-28T06:22:57;11.87;;;7.60;;
26654;SDS011;14278;50.784;4.630;2024-02-28T06:25:22;12.57;;;6.60;;
26654;SDS011;14278;50.784;4.630;2024-02-28T06:27:49;10.40;;;5.97;;
26654;SDS011;14278;50.784;4.630;2024-02-28T06:30:15;14.30;;;6.90;;
26654;SDS011;14278;50.784;4.630;2024-02-28T06:32:42;22.13;;;7.67;;
26654;SDS011;14278;50.784;4.630;2024-02-28T06:35:08;8.90;;;5.97;;
26654;SDS011;14278;50.784;4.630;2024-02-28T06:37:34;9.43;;;5.80;;
26654;SDS011;14278;50.784;4.630;2024-02-28T06:40:00;12.90;;;7.77;;
26654;SDS011;14278;50.784;4.630;2024-02-28T06:42:27;14.80;;;7.20;;
26654;SDS011;14278;50.784;4.630;2024-02-28T06:44:53;15.53;;;7.27;;
26654;SDS011;14278;50.784;4.630;2024-02-28T06:47:19;13.70;;;6.93;;
26654;SDS011;14278;50.784;4.630;2024-02-28T06:49:47;13.53;;;7.10;;
26654;SDS011;14278;50.784;4.630;2024-02-28T06:52:14;10.47;;;5.73;;
26654;SDS011;14278;50.784;4.630;2024-02-28T06:54:40;12.90;;;6.93;;
26654;SDS011;14278;50.784;4.630;2024-02-28T06:57:05;15.07;;;6.30;;
26654;SDS011;14278;50.784;4.630;2024-02-28T06:59:41;13.37;;;7.20;;
26654;SDS011;14278;50.784;4.630;2024-02-28T07:02:06;12.77;;;6.53;;
26654;SDS011;14278;50.784;4.630;2024-02-28T07:04:33;14.90;;;7.73;;
26654;SDS011;14278;50.784;4.630;2024-02-28T07:07:11;14.93;;;6.63;;
26654;SDS011;14278;50.784;4.630;2024-02-28T07:09:38;8.67;;;5.90;;
26654;SDS011;14278;50.784;4.630;2024-02-28T07:12:16;11.50;;;6.90;;
26654;SDS011;14278;50.784;4.630;2024-02-28T07:14:46;15.67;;;8.00;;
26654;SDS011;14278;50.784;4.630;2024-02-28T07:17:13;12.97;;;7.03;;
26654;SDS011;14278;50.784;4.630;2024-02-28T07:20:02;19.50;;;9.07;;
26654;SDS011;14278;50.784;4.630;2024-02-28T07:22:28;22.03;;;9.10;;
26654;SDS011;14278;50.784;4.630;2024-02-28T07:24:57;17.90;;;8.17;;
26654;SDS011;14278;50.784;4.630;2024-02-28T07:27:23;17.73;;;8.13;;
26654;SDS011;14278;50.784;4.630;2024-02-28T07:29:49;15.73;;;8.50;;
26654;SDS011;14278;50.784;4.630;2024-02-28T07:32:15;19.97;;;9.77;;
26654;SDS011;14278;50.784;4.630;2024-02-28T07:34:40;14.33;;;7.90;;
26654;SDS011;14278;50.784;4.630;2024-02-28T07:37:07;17.67;;;8.97;;
26654;SDS011;14278;50.784;4.630;2024-02-28T07:39:33;13.77;;;7.80;;
26654;SDS011;14278;50.784;4.630;2024-02-28T07:41:59;15.97;;;8.00;;
26654;SDS011;14278;50.784;4.630;2024-02-28T07:44:30;15.40;;;7.50;;
26654;SDS011;14278;50.784;4.630;2024-02-28T07:46:56;33.17;;;9.27;;
26654;SDS011;14278;50.784;4.630;2024-02-28T07:49:23;15.47;;;9.23;;
26654;SDS011;14278;50.784;4.630;2024-02-28T07:51:49;16.00;;;6.70;;
26654;SDS011;14278;50.784;4.630;2024-02-28T07:54:22;18.90;;;9.63;;
26654;SDS011;14278;50.784;4.630;2024-02-28T07:56:49;21.73;;;8.07;;
26654;SDS011;14278;50.784;4.630;2024-02-28T07:59:16;16.07;;;7.87;;
26654;SDS011;14278;50.784;4.630;2024-02-28T08:01:43;21.50;;;9.23;;
26654;SDS011;14278;50.784;4.630;2024-02-28T08:04:11;22.30;;;9.63;;
26654;SDS011;14278;50.784;4.630;2024-02-28T08:06:39;16.97;;;7.87;;
26654;SDS011;14278;50.784;4.630;2024-02-28T08:09:05;21.43;;;9.43;;
26654;SDS011;14278;50.784;4.630;2024-02-28T08:11:32;19.13;;;9.10;;
26654;SDS011;14278;50.784;4.630;2024-02-28T08:13:58;16.23;;;7.73;;
26654;SDS011;14278;50.784;4.630;2024-02-28T08:16:24;19.70;;;10.07;;
26654;SDS011;14278;50.784;4.630;2024-02-28T08:18:50;21.87;;;9.13;;
26654;SDS011;14278;50.784;4.630;2024-02-28T08:21:15;17.70;;;9.07;;
26654;SDS011;14278;50.784;4.630;2024-02-28T08:23:43;19.30;;;9.07;;
26654;SDS011;14278;50.784;4.630;2024-02-28T08:26:08;16.17;;;8.87;;
26654;SDS011;14278;50.784;4.630;2024-02-28T08:28:34;21.17;;;9.57;;
26654;SDS011;14278;50.784;4.630;2024-02-28T08:31:00;23.90;;;10.80;;
26654;SDS011;14278;50.784;4.630;2024-02-28T08:33:26;19.83;;;8.77;;
26654;SDS011;14278;50.784;4.630;2024-02-28T08:35:52;26.37;;;10.70;;
26654;SDS011;14278;50.784;4.630;2024-02-28T08:38:19;18.77;;;9.37;;
26654;SDS011;14278;50.784;4.630;2024-02-28T08:40:45;27.57;;;9.50;;
26654;SDS011;14278;50.784;4.630;2024-02-28T08:43:11;22.97;;;9.63;;
26654;SDS011;14278;50.784;4.630;2024-02-28T08:45:37;16.57;;;9.47;;
26654;SDS011;14278;50.784;4.630;2024-02-28T08:48:07;24.83;;;9.87;;
26654;SDS011;14278;50.784;4.630;2024-02-28T08:50:33;24.80;;;8.83;;
26654;SDS011;14278;50.784;4.630;2024-02-28T08:53:00;19.87;;;9.17;;
26654;SDS011;14278;50.784;4.630;2024-02-28T08:55:27;24.93;;;10.50;;
26654;SDS011;14278;50.784;4.630;2024-02-28T08:57:54;17.57;;;8.57;;
26654;SDS011;14278;50.784;4.630;2024-02-28T09:00:19;21.63;;;9.20;;
26654;SDS011;14278;50.784;4.630;2024-02-28T09:02:51;20.80;;;9.27;;
26654;SDS011;14278;50.784;4.630;2024-02-28T09:05:17;20.07;;;8.37;;
26654;SDS011;14278;50.784;4.630;2024-02-28T09:07:43;24.20;;;9.20;;
26654;SDS011;14278;50.784;4.630;2024-02-28T09:10:10;26.33;;;9.23;;
26654;SDS011;14278;50.784;4.630;2024-02-28T09:12:36;24.47;;;8.53;;
26654;SDS011;14278;50.784;4.630;2024-02-28T09:15:02;18.93;;;7.40;;
26654;SDS011;14278;50.784;4.630;2024-02-28T09:17:28;19.57;;;7.70;;
26654;SDS011;14278;50.784;4.630;2024-02-28T09:19:53;17.40;;;6.33;;
26654;SDS011;14278;50.784;4.630;2024-02-28T09:22:19;15.63;;;6.63;;
26654;SDS011;14278;50.784;4.630;2024-02-28T09:24:46;13.90;;;6.67;;
26654;SDS011;14278;50.784;4.630;2024-02-28T09:27:13;13.43;;;5.90;;
26654;SDS011;14278;50.784;4.630;2024-02-28T09:34:56;18.50;;;7.90;;
26654;SDS011;14278;50.784;4.630;2024-02-28T09:37:21;22.83;;;6.40;;
26654;SDS011;14278;50.784;4.630;2024-02-28T09:39:49;14.40;;;6.73;;
26654;SDS011;14278;50.784;4.630;2024-02-28T09:42:19;17.33;;;5.93;;
26654;SDS011;14278;50.784;4.630;2024-02-28T09:47:19;11.43;;;5.77;;
26654;SDS011;14278;50.784;4.630;2024-02-28T10:00:09;9.83;;;5.70;;
26654;SDS011;14278;50.784;4.630;2024-02-28T10:03:02;13.67;;;5.77;;
26654;SDS011;14278;50.784;4.630;2024-02-28T10:11:50;9.20;;;5.27;;
26654;SDS011;14278;50.784;4.630;2024-02-28T10:14:18;12.20;;;5.27;;
26654;SDS011;14278;50.784;4.630;2024-02-28T10:16:45;8.43;;;5.20;;
26654;SDS011;14278;50.784;4.630;2024-02-28T10:21:53;10.60;;;4.43;;
26654;SDS011;14278;50.784;4.630;2024-02-28T10:24:19;13.03;;;5.47;;
26654;SDS011;14278;50.784;4.630;2024-02-28T10:29:24;13.07;;;4.97;;
26654;SDS011;14278;50.784;4.630;2024-02-28T10:34:34;8.83;;;4.87;;
26654;SDS011;14278;50.784;4.630;2024-02-28T10:39:41;10.90;;;5.27;;
26654;SDS011;14278;50.784;4.630;2024-02-28T10:45:12;14.43;;;6.63;;
26654;SDS011;14278;50.784;4.630;2024-02-28T10:47:51;7.70;;;4.60;;
26654;SDS011;14278;50.784;4.630;2024-02-28T10:50:17;13.20;;;6.20;;
26654;SDS011;14278;50.784;4.630;2024-02-28T10:52:59;9.40;;;5.87;;
26654;SDS011;14278;50.784;4.630;2024-02-28T10:55:27;12.57;;;6.27;;
26654;SDS011;14278;50.784;4.630;2024-02-28T10:58:06;13.73;;;6.03;;
26654;SDS011;14278;50.784;4.630;2024-02-28T11:03:03;13.50;;;7.00;;
26654;SDS011;14278;50.784;4.630;2024-02-28T11:06:03;11.20;;;5.93;;
26654;SDS011;14278;50.784;4.630;2024-02-28T11:08:29;18.17;;;5.77;;
26654;SDS011;14278;50.784;4.630;2024-02-28T11:10:57;14.23;;;7.03;;
26654;SDS011;14278;50.784;4.630;2024-02-28T11:13:24;16.00;;;5.97;;
26654;SDS011;14278;50.784;4.630;2024-02-28T11:15:51;15.63;;;7.93;;
26654;SDS011;14278;50.784;4.630;2024-02-28T11:20:52;11.07;;;6.67;;
26654;SDS011;14278;50.784;4.630;2024-02-28T11:23:19;16.90;;;7.03;;
26654;SDS011;14278;50.784;4.630;2024-02-28T11:26:02;12.33;;;6.50;;
26654;SDS011;14278;50.784;4.630;2024-02-28T11:28:28;13.70;;;7.23;;
26654;SDS011;14278;50.784;4.630;2024-02-28T11:31:08;11.90;;;6.93;;
26654;SDS011;14278;50.784;4.630;2024-02-28T11:33:37;10.27;;;6.70;;
26654;SDS011;14278;50.784;4.630;2024-02-28T11:36:03;13.50;;;7.23;;
26654;SDS011;14278;50.784;4.630;2024-02-28T11:38:31;14.23;;;6.37;;
26654;SDS011;14278;50.784;4.630;2024-02-28T11:40:57;12.87;;;6.83;;
26654;SDS011;14278;50.784;4.630;2024-02-28T11:43:24;11.93;;;6.67;;
26654;SDS011;14278;50.784;4.630;2024-02-28T11:45:51;10.70;;;6.40;;
26654;SDS011;14278;50.784;4.630;2024-02-28T11:50:47;9.03;;;5.60;;
26654;SDS011;14278;50.784;4.630;2024-02-28T11:53:13;12.90;;;6.27;;
26654;SDS011;14278;50.784;4.630;2024-02-28T11:55:40;11.73;;;5.50;;
26654;SDS011;14278;50.784;4.630;2024-02-28T11:58:16;11.40;;;4.73;;
26654;SDS011;14278;50.784;4.630;2024-02-28T12:00:50;10.37;;;6.07;;
26654;SDS011;14278;50.784;4.630;2024-02-28T12:06:01;8.90;;;5.07;;
26654;SDS011;14278;50.784;4.630;2024-02-28T12:08:30;9.83;;;5.23;;
26654;SDS011;14278;50.784;4.630;2024-02-28T12:11:05;8.50;;;4.97;;
26654;SDS011;14278;50.784;4.630;2024-02-28T12:13:36;10.37;;;4.40;;
26654;SDS011;14278;50.784;4.630;2024-02-28T12:16:02;11.07;;;6.00;;
26654;SDS011;14278;50.784;4.630;2024-02-28T12:18:29;12.30;;;5.47;;
26654;SDS011;14278;50.784;4.630;2024-02-28T12:23:30;10.93;;;6.30;;
26654;SDS011;14278;50.784;4.630;2024-02-28T12:25:56;10.10;;;5.40;;
26654;SDS011;14278;50.784;4.630;2024-02-28T12:28:23;7.70;;;4.67;;
26654;SDS011;14278;50.784;4.630;2024-02-28T12:30:49;10.03;;;5.33;;
26654;SDS011;14278;50.784;4.630;2024-02-28T12:33:18;10.23;;;5.93;;
26654;SDS011;14278;50.784;4.630;2024-02-28T12:35:44;8.90;;;5.70;;
26654;SDS011;14278;50.784;4.630;2024-02-28T12:38:10;10.50;;;6.43;;
26654;SDS011;14278;50.784;4.630;2024-02-28T12:40:35;13.40;;;7.77;;
26654;SDS011;14278;50.784;4.630;2024-02-28T12:43:01;10.10;;;5.60;;
26654;SDS011;14278;50.784;4.630;2024-02-28T12:48:14;14.70;;;6.87;;
26654;SDS011;14278;50.784;4.630;2024-02-28T12:50:40;10.20;;;5.40;;
26654;SDS011;14278;50.784;4.630;2024-02-28T12:53:06;7.93;;;4.47;;
26654;SDS011;14278;50.784;4.630;2024-02-28T12:55:33;11.90;;;4.60;;
26654;SDS011;14278;50.784;4.630;2024-02-28T12:58:02;7.80;;;4.10;;
26654;SDS011;14278;50.784;4.630;2024-02-28T13:00:30;6.60;;;3.33;;
26654;SDS011;14278;50.784;4.630;2024-02-28T13:02:56;4.70;;;2.93;;
26654;SDS011;14278;50.784;4.630;2024-02-28T13:05:22;4.67;;;2.70;;
26654;SDS011;14278;50.784;4.630;2024-02-28T13:07:48;7.53;;;2.93;;
26654;SDS011;14278;50.784;4.630;2024-02-28T13:10:13;5.90;;;3.17;;
26654;SDS011;14278;50.784;4.630;2024-02-28T13:12:39;3.63;;;2.60;;
26654;SDS011;14278;50.784;4.630;2024-02-28T13:15:08;4.37;;;2.97;;
26654;SDS011;14278;50.784;4.630;2024-02-28T13:17:33;3.60;;;2.47;;
26654;SDS011;14278;50.784;4.630;2024-02-28T13:19:59;4.73;;;2.50;;
26654;SDS011;14278;50.784;4.630;2024-02-28T13:22:30;5.00;;;2.80;;
26654;SDS011;14278;50.784;4.630;2024-02-28T13:24:56;4.43;;;2.00;;
26654;SDS011;14278;50.784;4.630;2024-02-28T13:27:22;4.30;;;1.87;;
26654;SDS011;14278;50.784;4.630;2024-02-28T13:29:47;3.00;;;1.80;;
26654;SDS011;14278;50.784;4.630;2024-02-28T13:34:48;5.47;;;1.83;;
26654;SDS011;14278;50.784;4.630;2024-02-28T13:39:51;2.77;;;1.70;;
26654;SDS011;14278;50.784;4.630;2024-02-28T13:42:18;3.50;;;1.77;;
26654;SDS011;14278;50.784;4.630;2024-02-28T13:47:26;2.27;;;1.77;;
26654;SDS011;14278;50.784;4.630;2024-02-28T13:57:44;3.37;;;2.07;;
26654;SDS011;14278;50.784;4.630;2024-02-28T14:00:14;3.53;;;2.20;;
26654;SDS011;14278;50.784;4.630;2024-02-28T14:05:31;3.20;;;1.93;;
26654;SDS011;14278;50.784;4.630;2024-02-28T14:10:30;3.97;;;2.20;;
26654;SDS011;14278;50.784;4.630;2024-02-28T14:15:40;2.50;;;2.10;;
26654;SDS011;14278;50.784;4.630;2024-02-28T14:18:10;3.80;;;2.13;;
26654;SDS011;14278;50.784;4.630;2024-02-28T14:21:07;5.47;;;2.03;;
26654;SDS011;14278;50.784;4.630;2024-02-28T14:23:57;3.80;;;2.40;;
26654;SDS011;14278;50.784;4.630;2024-02-28T14:26:23;11.10;;;4.73;;
26654;SDS011;14278;50.784;4.630;2024-02-28T14:31:25;2.17;;;1.67;;
26654;SDS011;14278;50.784;4.630;2024-02-28T14:33:52;2.00;;;1.60;;
26654;SDS011;14278;50.784;4.630;2024-02-28T14:36:19;2.87;;;2.17;;
26654;SDS011;14278;50.784;4.630;2024-02-28T14:38:45;3.67;;;1.90;;
26654;SDS011;14278;50.784;4.630;2024-02-28T14:44:04;1.73;;;1.37;;
26654;SDS011;14278;50.784;4.630;2024-02-28T14:46:38;2.53;;;1.50;;
26654;SDS011;14278;50.784;4.630;2024-02-28T14:49:28;2.90;;;1.30;;
26654;SDS011;14278;50.784;4.630;2024-02-28T15:00:00;11.53;;;2.47;;
26654;SDS011;14278;50.784;4.630;2024-02-28T15:02:32;3.57;;;1.70;;
26654;SDS011;14278;50.784;4.630;2024-02-28T15:04:59;2.80;;;1.80;;
26654;SDS011;14278;50.784;4.630;2024-02-28T15:07:25;2.10;;;1.40;;
26654;SDS011;14278;50.784;4.630;2024-02-28T15:09:51;3.03;;;1.50;;
26654;SDS011;14278;50.784;4.630;2024-02-28T15:12:17;4.67;;;1.70;;
26654;SDS011;14278;50.784;4.630;2024-02-28T15:14:43;1.63;;;1.47;;
26654;SDS011;14278;50.784;4.630;2024-02-28T15:17:08;1.53;;;1.20;;
26654;SDS011;14278;50.784;4.630;2024-02-28T15:27:20;1.70;;;1.40;;
26654;SDS011;14278;50.784;4.630;2024-02-28T15:29:46;2.23;;;1.20;;
26654;SDS011;14278;50.784;4.630;2024-02-28T15:32:21;1.73;;;1.30;;
26654;SDS011;14278;50.784;4.630;2024-02-28T15:34:47;2.10;;;1.50;;
26654;SDS011;14278;50.784;4.630;2024-02-28T15:37:13;2.50;;;1.43;;
26654;SDS011;14278;50.784;4.630;2024-02-28T15:39:38;2.30;;;1.53;;
26654;SDS011;14278;50.784;4.630;2024-02-28T15:42:05;3.43;;;1.77;;
26654;SDS011;14278;50.784;4.630;2024-02-28T15:44:32;4.43;;;2.10;;
26654;SDS011;14278;50.784;4.630;2024-02-28T15:46:59;1.70;;;1.60;;
26654;SDS011;14278;50.784;4.630;2024-02-28T15:49:25;4.60;;;1.80;;
26654;SDS011;14278;50.784;4.630;2024-02-28T15:54:20;3.77;;;2.13;;
26654;SDS011;14278;50.784;4.630;2024-02-28T15:56:47;2.50;;;2.00;;
26654;SDS011;14278;50.784;4.630;2024-02-28T16:02:17;3.97;;;1.90;;
26654;SDS011;14278;50.784;4.630;2024-02-28T16:04:43;3.47;;;2.30;;
26654;SDS011;14278;50.784;4.630;2024-02-28T16:07:09;4.47;;;2.17;;
26654;SDS011;14278;50.784;4.630;2024-02-28T16:09:41;2.50;;;2.00;;
26654;SDS011;14278;50.784;4.630;2024-02-28T16:12:08;3.43;;;2.00;;
26654;SDS011;14278;50.784;4.630;2024-02-28T16:14:34;6.93;;;2.33;;
26654;SDS011;14278;50.784;4.630;2024-02-28T16:17:03;2.47;;;2.27;;
26654;SDS011;14278;50.784;4.630;2024-02-28T16:19:29;3.40;;;2.53;;
26654;SDS011;14278;50.784;4.630;2024-02-28T16:22:00;4.40;;;2.57;;
26654;SDS011;14278;50.784;4.630;2024-02-28T16:24:26;5.43;;;2.70;;
26654;SDS011;14278;50.784;4.630;2024-02-28T16:29:20;4.53;;;2.67;;
26654;SDS011;14278;50.784;4.630;2024-02-28T16:31:46;4.40;;;2.80;;
26654;SDS011;14278;50.784;4.630;2024-02-28T16:34:13;6.03;;;2.50;;
26654;SDS011;14278;50.784;4.630;2024-02-28T16:36:39;3.47;;;2.77;;
26654;SDS011;14278;50.784;4.630;2024-02-28T16:39:05;4.47;;;2.97;;
26654;SDS011;14278;50.784;4.630;2024-02-28T16:41:31;4.07;;;2.80;;
26654;SDS011;14278;50.784;4.630;2024-02-28T16:43:57;4.57;;;3.17;;
26654;SDS011;14278;50.784;4.630;2024-02-28T16:46:23;5.17;;;3.07;;
26654;SDS011;14278;50.784;4.630;2024-02-28T16:48:52;68.33;;;30.73;;
26654;SDS011;14278;50.784;4.630;2024-02-28T16:51:20;47.00;;;16.10;;
26654;SDS011;14278;50.784;4.630;2024-02-28T16:53:46;8.13;;;3.63;;
26654;SDS011;14278;50.784;4.630;2024-02-28T16:56:13;23.23;;;9.67;;
26654;SDS011;14278;50.784;4.630;2024-02-28T16:59:17;6.80;;;4.07;;
26654;SDS011;14278;50.784;4.630;2024-02-28T17:01:43;7.77;;;3.50;;
26654;SDS011;14278;50.784;4.630;2024-02-28T17:04:11;11.33;;;5.70;;
26654;SDS011;14278;50.784;4.630;2024-02-28T17:06:38;7.20;;;4.30;;
26654;SDS011;14278;50.784;4.630;2024-02-28T17:09:04;7.70;;;3.80;;